sensor_id;sensor_type;location;lat;lon;timestamp;P1;durP1;ratioP1;P2;durP2;ratioP2
42414;SDS011;28058;46.344;17.786;2022-08-03T00:00:23;4.93;;;3.55;;
42414;SDS011;28058;46.344;17.786;2022-08-03T00:02:51;4.35;;;3.88;;
42414;SDS011;28058;46.344;17.786;2022-08-03T00:05:19;4.28;;;3.72;;
42414;SDS011;28058;46.344;17.786;2022-08-03T00:07:46;4.07;;;3.67;;
42414;SDS011;28058;46.344;17.786;2022-08-03T00:10:14;3.92;;;3.53;;
42414;SDS011;28058;46.344;17.786;2022-08-03T00:12:41;3.42;;;3.13;;
42414;SDS011;28058;46.344;17.786;2022-08-03T00:15:08;4.60;;;3.30;;
42414;SDS011;28058;46.344;17.786;2022-08-03T00:17:40;4.32;;;3.33;;
42414;SDS011;28058;46.344;17.786;2022-08-03T00:20:19;4.55;;;3.20;;
42414;SDS011;28058;46.344;17.786;2022-08-03T00:22:47;4.70;;;4.30;;
42414;SDS011;28058;46.344;17.786;2022-08-03T00:25:15;4.00;;;3.65;;
42414;SDS011;28058;46.344;17.786;2022-08-03T00:27:41;4.80;;;3.88;;
42414;SDS011;28058;46.344;17.786;2022-08-03T00:30:08;5.10;;;3.25;;
42414;SDS011;28058;46.344;17.786;2022-08-03T00:32:35;4.40;;;3.20;;
42414;SDS011;28058;46.344;17.786;2022-08-03T00:35:09;5.93;;;4.22;;
42414;SDS011;28058;46.344;17.786;2022-08-03T00:37:57;4.00;;;3.60;;
42414;SDS011;28058;46.344;17.786;2022-08-03T00:40:24;4.25;;;3.85;;
42414;SDS011;28058;46.344;17.786;2022-08-03T00:42:52;4.10;;;3.70;;
42414;SDS011;28058;46.344;17.786;2022-08-03T00:45:27;4.70;;;4.30;;
42414;SDS011;28058;46.344;17.786;2022-08-03T00:47:56;3.63;;;3.33;;
42414;SDS011;28058;46.344;17.786;2022-08-03T00:50:25;4.18;;;3.53;;
42414;SDS011;28058;46.344;17.786;2022-08-03T00:52:55;4.80;;;4.40;;
42414;SDS011;28058;46.344;17.786;2022-08-03T00:55:24;4.82;;;3.80;;
42414;SDS011;28058;46.344;17.786;2022-08-03T00:57:51;6.63;;;4.55;;
42414;SDS011;28058;46.344;17.786;2022-08-03T01:00:25;4.80;;;4.32;;
42414;SDS011;28058;46.344;17.786;2022-08-03T01:02:53;4.28;;;3.88;;
42414;SDS011;28058;46.344;17.786;2022-08-03T03:27:05;5.65;;;4.10;;
42414;SDS011;28058;46.344;17.786;2022-08-03T03:29:33;5.05;;;4.53;;
42414;SDS011;28058;46.344;17.786;2022-08-03T03:34:34;6.68;;;5.18;;
42414;SDS011;28058;46.344;17.786;2022-08-03T03:37:02;6.72;;;4.63;;
42414;SDS011;28058;46.344;17.786;2022-08-03T03:39:29;8.23;;;5.22;;
42414;SDS011;28058;46.344;17.786;2022-08-03T03:41:56;5.75;;;4.32;;
42414;SDS011;28058;46.344;17.786;2022-08-03T03:44:25;5.68;;;4.88;;
42414;SDS011;28058;46.344;17.786;2022-08-03T03:46:57;4.97;;;4.47;;
42414;SDS011;28058;46.344;17.786;2022-08-03T03:49:24;5.60;;;5.07;;
42414;SDS011;28058;46.344;17.786;2022-08-03T03:51:52;5.68;;;5.18;;
42414;SDS011;28058;46.344;17.786;2022-08-03T03:54:20;8.52;;;4.32;;
42414;SDS011;28058;46.344;17.786;2022-08-03T03:56:50;6.72;;;4.55;;
42414;SDS011;28058;46.344;17.786;2022-08-03T03:59:17;5.30;;;4.80;;
42414;SDS011;28058;46.344;17.786;2022-08-03T04:01:44;5.82;;;5.22;;
42414;SDS011;28058;46.344;17.786;2022-08-03T04:04:11;5.57;;;4.85;;
42414;SDS011;28058;46.344;17.786;2022-08-03T04:06:57;5.40;;;4.82;;
42414;SDS011;28058;46.344;17.786;2022-08-03T04:09:42;5.30;;;4.70;;
42414;SDS011;28058;46.344;17.786;2022-08-03T04:12:40;5.72;;;4.80;;
42414;SDS011;28058;46.344;17.786;2022-08-03T04:15:16;5.28;;;4.78;;
42414;SDS011;28058;46.344;17.786;2022-08-03T04:17:46;5.63;;;4.17;;
42414;SDS011;28058;46.344;17.786;2022-08-03T04:20:16;5.72;;;5.10;;
42414;SDS011;28058;46.344;17.786;2022-08-03T04:22:46;6.72;;;4.70;;
42414;SDS011;28058;46.344;17.786;2022-08-03T04:25:16;7.80;;;4.75;;
42414;SDS011;28058;46.344;17.786;2022-08-03T04:27:46;5.32;;;4.60;;
42414;SDS011;28058;46.344;17.786;2022-08-03T04:33:13;5.10;;;4.25;;
42414;SDS011;28058;46.344;17.786;2022-08-03T04:35:42;3.60;;;3.17;;
42414;SDS011;28058;46.344;17.786;2022-08-03T04:38:29;3.97;;;2.95;;
42414;SDS011;28058;46.344;17.786;2022-08-03T04:40:58;3.95;;;2.60;;
42414;SDS011;28058;46.344;17.786;2022-08-03T04:43:26;3.20;;;2.83;;
42414;SDS011;28058;46.344;17.786;2022-08-03T04:45:54;3.33;;;2.75;;
42414;SDS011;28058;46.344;17.786;2022-08-03T04:48:22;3.78;;;2.70;;
42414;SDS011;28058;46.344;17.786;2022-08-03T04:50:49;4.00;;;2.60;;
42414;SDS011;28058;46.344;17.786;2022-08-03T04:53:17;4.65;;;2.78;;
42414;SDS011;28058;46.344;17.786;2022-08-03T04:55:44;2.88;;;2.20;;
42414;SDS011;28058;46.344;17.786;2022-08-03T04:58:12;2.75;;;2.20;;
42414;SDS011;28058;46.344;17.786;2022-08-03T05:00:39;5.03;;;2.42;;
42414;SDS011;28058;46.344;17.786;2022-08-03T05:03:05;3.65;;;2.78;;
42414;SDS011;28058;46.344;17.786;2022-08-03T05:05:53;7.68;;;6.82;;
42414;SDS011;28058;46.344;17.786;2022-08-03T05:08:36;7.25;;;6.35;;
42414;SDS011;28058;46.344;17.786;2022-08-03T05:11:13;6.03;;;5.30;;
42414;SDS011;28058;46.344;17.786;2022-08-03T05:13:40;7.32;;;4.43;;
42414;SDS011;28058;46.344;17.786;2022-08-03T05:16:07;5.38;;;3.60;;
42414;SDS011;28058;46.344;17.786;2022-08-03T05:18:34;5.75;;;4.20;;
42414;SDS011;28058;46.344;17.786;2022-08-03T05:21:01;4.53;;;3.70;;
42414;SDS011;28058;46.344;17.786;2022-08-03T05:23:28;3.20;;;2.60;;
42414;SDS011;28058;46.344;17.786;2022-08-03T05:25:55;5.93;;;2.65;;
42414;SDS011;28058;46.344;17.786;2022-08-03T05:28:22;2.25;;;2.05;;
42414;SDS011;28058;46.344;17.786;2022-08-03T05:30:48;7.03;;;2.50;;
42414;SDS011;28058;46.344;17.786;2022-08-03T05:33:15;2.83;;;2.53;;
42414;SDS011;28058;46.344;17.786;2022-08-03T05:35:42;4.43;;;2.30;;
42414;SDS011;28058;46.344;17.786;2022-08-03T05:46:14;4.75;;;2.20;;
42414;SDS011;28058;46.344;17.786;2022-08-03T05:48:41;3.05;;;2.60;;
42414;SDS011;28058;46.344;17.786;2022-08-03T05:51:09;4.68;;;3.20;;
42414;SDS011;28058;46.344;17.786;2022-08-03T05:53:39;5.95;;;2.90;;
42414;SDS011;28058;46.344;17.786;2022-08-03T06:15:48;5.00;;;2.03;;
42414;SDS011;28058;46.344;17.786;2022-08-03T06:18:15;5.28;;;2.33;;
42414;SDS011;28058;46.344;17.786;2022-08-03T06:33:24;3.33;;;2.20;;
42414;SDS011;28058;46.344;17.786;2022-08-03T06:36:11;5.82;;;2.42;;
42414;SDS011;28058;46.344;17.786;2022-08-03T07:42:58;3.80;;;2.20;;
42414;SDS011;28058;46.344;17.786;2022-08-03T07:45:25;3.67;;;2.00;;
42414;SDS011;28058;46.344;17.786;2022-08-03T07:47:52;2.83;;;1.83;;
42414;SDS011;28058;46.344;17.786;2022-08-03T07:50:20;2.10;;;1.83;;
42414;SDS011;28058;46.344;17.786;2022-08-03T07:52:48;2.03;;;1.83;;
42414;SDS011;28058;46.344;17.786;2022-08-03T07:55:18;2.00;;;1.65;;
42414;SDS011;28058;46.344;17.786;2022-08-03T07:57:57;5.20;;;2.28;;
42414;SDS011;28058;46.344;17.786;2022-08-03T08:00:35;1.95;;;1.75;;
42414;SDS011;28058;46.344;17.786;2022-08-03T08:03:02;4.13;;;2.17;;
42414;SDS011;28058;46.344;17.786;2022-08-03T08:05:30;3.15;;;2.20;;
42414;SDS011;28058;46.344;17.786;2022-08-03T08:07:57;3.85;;;2.20;;
42414;SDS011;28058;46.344;17.786;2022-08-03T08:10:24;4.32;;;2.10;;
42414;SDS011;28058;46.344;17.786;2022-08-03T08:12:51;2.78;;;1.92;;
42414;SDS011;28058;46.344;17.786;2022-08-03T08:15:18;2.95;;;2.03;;
42414;SDS011;28058;46.344;17.786;2022-08-03T08:17:51;1.92;;;1.70;;
42414;SDS011;28058;46.344;17.786;2022-08-03T08:20:29;2.50;;;1.98;;
42414;SDS011;28058;46.344;17.786;2022-08-03T08:25:32;2.53;;;2.00;;
42414;SDS011;28058;46.344;17.786;2022-08-03T08:27:59;2.25;;;1.83;;
42414;SDS011;28058;46.344;17.786;2022-08-03T08:33:16;2.17;;;1.65;;
42414;SDS011;28058;46.344;17.786;2022-08-03T08:35:49;2.20;;;1.60;;
42414;SDS011;28058;46.344;17.786;2022-08-03T09:51:37;1.67;;;1.42;;
42414;SDS011;28058;46.344;17.786;2022-08-03T09:54:28;5.22;;;1.50;;
42414;SDS011;28058;46.344;17.786;2022-08-03T09:56:56;2.65;;;1.58;;
42414;SDS011;28058;46.344;17.786;2022-08-03T09:59:29;3.38;;;1.52;;
42414;SDS011;28058;46.344;17.786;2022-08-03T10:01:58;2.85;;;1.42;;
42414;SDS011;28058;46.344;17.786;2022-08-03T10:04:26;2.67;;;1.75;;
42414;SDS011;28058;46.344;17.786;2022-08-03T10:09:52;2.38;;;1.40;;
42414;SDS011;28058;46.344;17.786;2022-08-03T10:12:44;2.45;;;1.40;;
42414;SDS011;28058;46.344;17.786;2022-08-03T10:15:11;2.10;;;1.85;;
42414;SDS011;28058;46.344;17.786;2022-08-03T10:17:58;2.80;;;1.70;;
42414;SDS011;28058;46.344;17.786;2022-08-03T10:20:24;2.88;;;1.40;;
42414;SDS011;28058;46.344;17.786;2022-08-03T10:22:52;2.85;;;1.73;;
42414;SDS011;28058;46.344;17.786;2022-08-03T10:25:18;2.67;;;1.83;;
42414;SDS011;28058;46.344;17.786;2022-08-03T10:27:46;4.00;;;2.00;;
42414;SDS011;28058;46.344;17.786;2022-08-03T10:30:16;2.85;;;1.40;;
42414;SDS011;28058;46.344;17.786;2022-08-03T10:32:47;2.80;;;1.55;;
42414;SDS011;28058;46.344;17.786;2022-08-03T10:35:22;2.75;;;1.60;;
42414;SDS011;28058;46.344;17.786;2022-08-03T10:37:58;1.70;;;1.50;;
42414;SDS011;28058;46.344;17.786;2022-08-03T10:43:18;2.13;;;1.60;;
42414;SDS011;28058;46.344;17.786;2022-08-03T10:45:48;2.55;;;1.50;;
42414;SDS011;28058;46.344;17.786;2022-08-03T10:48:16;3.95;;;1.83;;
42414;SDS011;28058;46.344;17.786;2022-08-03T10:50:45;2.70;;;1.50;;
42414;SDS011;28058;46.344;17.786;2022-08-03T10:53:14;1.88;;;1.30;;
42414;SDS011;28058;46.344;17.786;2022-08-03T10:55:44;3.53;;;1.50;;
42414;SDS011;28058;46.344;17.786;2022-08-03T11:04:26;3.38;;;1.60;;
42414;SDS011;28058;46.344;17.786;2022-08-03T11:09:45;2.15;;;1.73;;
42414;SDS011;28058;46.344;17.786;2022-08-03T11:12:20;3.65;;;1.63;;
42414;SDS011;28058;46.344;17.786;2022-08-03T11:15:04;2.60;;;1.48;;
42414;SDS011;28058;46.344;17.786;2022-08-03T11:17:34;3.13;;;1.60;;
42414;SDS011;28058;46.344;17.786;2022-08-03T11:23:12;3.65;;;1.50;;
42414;SDS011;28058;46.344;17.786;2022-08-03T11:28:36;2.92;;;1.90;;
42414;SDS011;28058;46.344;17.786;2022-08-03T11:34:09;1.55;;;1.42;;
42414;SDS011;28058;46.344;17.786;2022-08-03T11:39:43;1.90;;;1.55;;
42414;SDS011;28058;46.344;17.786;2022-08-03T11:44:48;2.78;;;1.58;;
42414;SDS011;28058;46.344;17.786;2022-08-03T11:47:23;2.55;;;1.70;;
42414;SDS011;28058;46.344;17.786;2022-08-03T11:49:53;3.63;;;1.90;;
42414;SDS011;28058;46.344;17.786;2022-08-03T11:52:24;2.60;;;1.67;;
42414;SDS011;28058;46.344;17.786;2022-08-03T11:54:53;4.15;;;2.08;;
42414;SDS011;28058;46.344;17.786;2022-08-03T11:57:29;2.65;;;1.88;;
42414;SDS011;28058;46.344;17.786;2022-08-03T12:00:29;2.78;;;1.70;;
42414;SDS011;28058;46.344;17.786;2022-08-03T12:03:02;2.47;;;1.77;;
42414;SDS011;28058;46.344;17.786;2022-08-03T12:05:34;2.95;;;1.77;;
42414;SDS011;28058;46.344;17.786;2022-08-03T12:08:04;3.03;;;1.80;;
42414;SDS011;28058;46.344;17.786;2022-08-03T12:10:32;2.83;;;2.00;;
42414;SDS011;28058;46.344;17.786;2022-08-03T12:13:00;3.65;;;1.40;;
42414;SDS011;28058;46.344;17.786;2022-08-03T12:18:20;2.00;;;1.60;;
42414;SDS011;28058;46.344;17.786;2022-08-03T12:20:48;2.28;;;1.77;;
42414;SDS011;28058;46.344;17.786;2022-08-03T12:23:17;3.03;;;1.38;;
42414;SDS011;28058;46.344;17.786;2022-08-03T12:25:45;2.13;;;1.40;;
42414;SDS011;28058;46.344;17.786;2022-08-03T12:28:19;1.60;;;1.38;;
42414;SDS011;28058;46.344;17.786;2022-08-03T12:31:06;3.47;;;1.85;;
42414;SDS011;28058;46.344;17.786;2022-08-03T12:36:53;2.30;;;1.80;;
42414;SDS011;28058;46.344;17.786;2022-08-03T12:39:22;2.50;;;2.00;;
42414;SDS011;28058;46.344;17.786;2022-08-03T12:41:53;3.83;;;1.63;;
42414;SDS011;28058;46.344;17.786;2022-08-03T12:46:57;3.40;;;1.73;;
42414;SDS011;28058;46.344;17.786;2022-08-03T12:49:25;2.53;;;1.60;;
42414;SDS011;28058;46.344;17.786;2022-08-03T12:51:56;5.65;;;1.80;;
42414;SDS011;28058;46.344;17.786;2022-08-03T12:54:32;1.75;;;1.55;;
42414;SDS011;28058;46.344;17.786;2022-08-03T12:59:49;2.30;;;1.52;;
42414;SDS011;28058;46.344;17.786;2022-08-03T13:02:22;3.40;;;2.05;;
42414;SDS011;28058;46.344;17.786;2022-08-03T13:04:52;4.40;;;1.87;;
42414;SDS011;28058;46.344;17.786;2022-08-03T13:07:20;2.15;;;1.60;;
42414;SDS011;28058;46.344;17.786;2022-08-03T13:09:49;3.70;;;1.65;;
42414;SDS011;28058;46.344;17.786;2022-08-03T13:12:22;1.95;;;1.33;;
42414;SDS011;28058;46.344;17.786;2022-08-03T13:14:51;2.13;;;1.60;;
42414;SDS011;28058;46.344;17.786;2022-08-03T13:17:21;2.92;;;1.45;;
42414;SDS011;28058;46.344;17.786;2022-08-03T13:19:48;4.68;;;1.50;;
42414;SDS011;28058;46.344;17.786;2022-08-03T13:22:26;1.95;;;1.50;;
42414;SDS011;28058;46.344;17.786;2022-08-03T13:24:54;2.72;;;1.65;;
42414;SDS011;28058;46.344;17.786;2022-08-03T13:27:24;3.42;;;1.95;;
42414;SDS011;28058;46.344;17.786;2022-08-03T13:30:11;2.85;;;1.60;;
42414;SDS011;28058;46.344;17.786;2022-08-03T13:32:50;2.00;;;1.60;;
42414;SDS011;28058;46.344;17.786;2022-08-03T13:35:17;2.15;;;1.42;;
42414;SDS011;28058;46.344;17.786;2022-08-03T13:37:44;3.13;;;1.50;;
42414;SDS011;28058;46.344;17.786;2022-08-03T13:40:14;3.40;;;1.50;;
42414;SDS011;28058;46.344;17.786;2022-08-03T13:42:40;3.92;;;1.55;;
42414;SDS011;28058;46.344;17.786;2022-08-03T13:45:07;2.03;;;1.60;;
42414;SDS011;28058;46.344;17.786;2022-08-03T13:47:35;3.10;;;1.88;;
42414;SDS011;28058;46.344;17.786;2022-08-03T13:50:03;3.55;;;1.50;;
42414;SDS011;28058;46.344;17.786;2022-08-03T13:52:31;3.30;;;1.65;;
42414;SDS011;28058;46.344;17.786;2022-08-03T13:55:00;4.57;;;1.50;;
42414;SDS011;28058;46.344;17.786;2022-08-03T13:57:27;4.00;;;1.38;;
42414;SDS011;28058;46.344;17.786;2022-08-03T14:00:15;3.38;;;1.30;;
42414;SDS011;28058;46.344;17.786;2022-08-03T14:02:57;1.50;;;1.30;;
42414;SDS011;28058;46.344;17.786;2022-08-03T14:05:38;2.25;;;1.40;;
42414;SDS011;28058;46.344;17.786;2022-08-03T14:08:06;2.97;;;1.20;;
42414;SDS011;28058;46.344;17.786;2022-08-03T14:10:34;4.57;;;1.42;;
42414;SDS011;28058;46.344;17.786;2022-08-03T14:13:03;1.95;;;1.30;;
42414;SDS011;28058;46.344;17.786;2022-08-03T14:15:30;3.10;;;1.67;;
42414;SDS011;28058;46.344;17.786;2022-08-03T14:18:03;2.05;;;1.30;;
42414;SDS011;28058;46.344;17.786;2022-08-03T14:20:41;1.92;;;1.50;;
42414;SDS011;28058;46.344;17.786;2022-08-03T14:23:15;2.97;;;1.60;;
42414;SDS011;28058;46.344;17.786;2022-08-03T14:25:43;4.10;;;2.00;;
42414;SDS011;28058;46.344;17.786;2022-08-03T14:28:18;2.67;;;1.80;;
42414;SDS011;28058;46.344;17.786;2022-08-03T14:30:49;3.80;;;1.45;;
42414;SDS011;28058;46.344;17.786;2022-08-03T14:33:19;2.05;;;1.63;;
42414;SDS011;28058;46.344;17.786;2022-08-03T14:35:47;1.95;;;1.15;;
42414;SDS011;28058;46.344;17.786;2022-08-03T14:38:15;2.78;;;1.30;;
42414;SDS011;28058;46.344;17.786;2022-08-03T14:40:43;2.38;;;1.55;;
42414;SDS011;28058;46.344;17.786;2022-08-03T14:43:10;1.60;;;1.20;;
42414;SDS011;28058;46.344;17.786;2022-08-03T14:45:37;3.00;;;1.50;;
42414;SDS011;28058;46.344;17.786;2022-08-03T14:48:05;4.88;;;1.50;;
42414;SDS011;28058;46.344;17.786;2022-08-03T14:50:52;1.92;;;1.40;;
42414;SDS011;28058;46.344;17.786;2022-08-03T14:53:20;2.75;;;1.70;;
42414;SDS011;28058;46.344;17.786;2022-08-03T14:55:47;2.58;;;1.30;;
42414;SDS011;28058;46.344;17.786;2022-08-03T14:58:17;3.13;;;1.38;;
42414;SDS011;28058;46.344;17.786;2022-08-03T15:00:47;2.07;;;1.10;;
42414;SDS011;28058;46.344;17.786;2022-08-03T15:03:16;3.00;;;1.42;;
42414;SDS011;28058;46.344;17.786;2022-08-03T15:05:45;4.93;;;1.27;;
42414;SDS011;28058;46.344;17.786;2022-08-03T15:08:12;6.38;;;1.60;;
42414;SDS011;28058;46.344;17.786;2022-08-03T15:10:39;7.45;;;1.40;;
42414;SDS011;28058;46.344;17.786;2022-08-03T15:13:11;3.85;;;1.40;;
42414;SDS011;28058;46.344;17.786;2022-08-03T15:15:38;2.88;;;1.42;;
42414;SDS011;28058;46.344;17.786;2022-08-03T15:18:06;3.33;;;1.50;;
42414;SDS011;28058;46.344;17.786;2022-08-03T15:20:33;2.35;;;1.35;;
42414;SDS011;28058;46.344;17.786;2022-08-03T15:23:15;3.58;;;1.25;;
42414;SDS011;28058;46.344;17.786;2022-08-03T15:25:43;4.75;;;1.10;;
42414;SDS011;28058;46.344;17.786;2022-08-03T15:28:31;3.28;;;1.20;;
42414;SDS011;28058;46.344;17.786;2022-08-03T15:30:58;1.60;;;1.17;;
42414;SDS011;28058;46.344;17.786;2022-08-03T15:33:25;5.72;;;1.48;;
42414;SDS011;28058;46.344;17.786;2022-08-03T15:35:51;2.92;;;1.48;;
42414;SDS011;28058;46.344;17.786;2022-08-03T15:38:18;3.95;;;1.38;;
42414;SDS011;28058;46.344;17.786;2022-08-03T15:40:51;5.93;;;1.55;;
42414;SDS011;28058;46.344;17.786;2022-08-03T15:43:22;1.67;;;1.17;;
42414;SDS011;28058;46.344;17.786;2022-08-03T15:45:49;2.28;;;1.25;;
42414;SDS011;28058;46.344;17.786;2022-08-03T15:48:36;8.57;;;2.53;;
42414;SDS011;28058;46.344;17.786;2022-08-03T15:51:04;2.60;;;1.15;;
42414;SDS011;28058;46.344;17.786;2022-08-03T15:53:31;2.25;;;1.23;;
42414;SDS011;28058;46.344;17.786;2022-08-03T15:56:00;2.33;;;1.02;;
42414;SDS011;28058;46.344;17.786;2022-08-03T15:58:35;9.77;;;1.52;;
42414;SDS011;28058;46.344;17.786;2022-08-03T16:01:22;4.13;;;1.05;;
42414;SDS011;28058;46.344;17.786;2022-08-03T16:03:50;1.75;;;1.00;;
42414;SDS011;28058;46.344;17.786;2022-08-03T16:06:17;3.40;;;1.30;;
42414;SDS011;28058;46.344;17.786;2022-08-03T16:08:55;2.75;;;1.00;;
42414;SDS011;28058;46.344;17.786;2022-08-03T16:11:21;2.08;;;1.08;;
42414;SDS011;28058;46.344;17.786;2022-08-03T16:13:48;3.45;;;1.20;;
42414;SDS011;28058;46.344;17.786;2022-08-03T16:16:35;2.00;;;1.20;;
42414;SDS011;28058;46.344;17.786;2022-08-03T16:19:05;2.17;;;1.17;;
42414;SDS011;28058;46.344;17.786;2022-08-03T16:21:32;2.05;;;1.05;;
42414;SDS011;28058;46.344;17.786;2022-08-03T16:24:13;3.15;;;1.20;;
42414;SDS011;28058;46.344;17.786;2022-08-03T16:26:42;2.40;;;1.23;;
42414;SDS011;28058;46.344;17.786;2022-08-03T16:29:09;2.40;;;1.05;;
42414;SDS011;28058;46.344;17.786;2022-08-03T16:31:48;1.95;;;1.25;;
42414;SDS011;28058;46.344;17.786;2022-08-03T16:34:16;3.95;;;1.30;;
42414;SDS011;28058;46.344;17.786;2022-08-03T16:36:44;2.63;;;1.20;;
42414;SDS011;28058;46.344;17.786;2022-08-03T16:39:11;3.00;;;1.10;;
42414;SDS011;28058;46.344;17.786;2022-08-03T16:41:38;2.28;;;1.10;;
42414;SDS011;28058;46.344;17.786;2022-08-03T16:44:25;14.15;;;1.30;;
42414;SDS011;28058;46.344;17.786;2022-08-03T16:49:23;3.28;;;1.13;;
42414;SDS011;28058;46.344;17.786;2022-08-03T16:52:10;6.45;;;1.42;;
42414;SDS011;28058;46.344;17.786;2022-08-03T16:54:38;3.60;;;1.58;;
42414;SDS011;28058;46.344;17.786;2022-08-03T16:57:05;3.20;;;1.30;;
42414;SDS011;28058;46.344;17.786;2022-08-03T16:59:34;2.63;;;1.25;;
42414;SDS011;28058;46.344;17.786;2022-08-03T17:02:02;3.97;;;1.45;;
42414;SDS011;28058;46.344;17.786;2022-08-03T17:04:35;4.63;;;1.38;;
42414;SDS011;28058;46.344;17.786;2022-08-03T17:07:05;1.75;;;1.23;;
42414;SDS011;28058;46.344;17.786;2022-08-03T17:09:34;5.88;;;1.40;;
42414;SDS011;28058;46.344;17.786;2022-08-03T17:12:04;3.30;;;1.38;;
42414;SDS011;28058;46.344;17.786;2022-08-03T17:14:32;2.67;;;1.23;;
42414;SDS011;28058;46.344;17.786;2022-08-03T17:17:00;2.53;;;1.40;;
42414;SDS011;28058;46.344;17.786;2022-08-03T17:19:32;2.08;;;1.30;;
42414;SDS011;28058;46.344;17.786;2022-08-03T17:22:09;2.22;;;1.58;;
42414;SDS011;28058;46.344;17.786;2022-08-03T17:24:38;2.08;;;1.48;;
42414;SDS011;28058;46.344;17.786;2022-08-03T17:27:12;4.28;;;1.80;;
42414;SDS011;28058;46.344;17.786;2022-08-03T17:30:09;2.42;;;1.30;;
42414;SDS011;28058;46.344;17.786;2022-08-03T17:32:39;2.95;;;1.88;;
42414;SDS011;28058;46.344;17.786;2022-08-03T17:35:23;2.05;;;1.23;;
42414;SDS011;28058;46.344;17.786;2022-08-03T17:38:03;1.63;;;1.33;;
42414;SDS011;28058;46.344;17.786;2022-08-03T17:40:39;1.70;;;1.33;;
42414;SDS011;28058;46.344;17.786;2022-08-03T17:43:16;2.92;;;1.40;;
42414;SDS011;28058;46.344;17.786;2022-08-03T17:46:03;3.95;;;1.42;;
42414;SDS011;28058;46.344;17.786;2022-08-03T17:48:36;1.90;;;1.27;;
42414;SDS011;28058;46.344;17.786;2022-08-03T17:51:14;3.65;;;1.30;;
42414;SDS011;28058;46.344;17.786;2022-08-03T17:53:44;3.53;;;1.48;;
42414;SDS011;28058;46.344;17.786;2022-08-03T17:56:20;4.00;;;1.42;;
42414;SDS011;28058;46.344;17.786;2022-08-03T17:59:23;3.30;;;1.70;;
42414;SDS011;28058;46.344;17.786;2022-08-03T18:05:13;3.90;;;1.83;;
42414;SDS011;28058;46.344;17.786;2022-08-03T18:07:47;4.30;;;1.40;;
42414;SDS011;28058;46.344;17.786;2022-08-03T18:10:26;4.72;;;1.60;;
42414;SDS011;28058;46.344;17.786;2022-08-03T18:13:10;2.08;;;1.50;;
42414;SDS011;28058;46.344;17.786;2022-08-03T18:15:57;4.75;;;1.80;;
42414;SDS011;28058;46.344;17.786;2022-08-03T18:18:33;6.13;;;2.78;;
42414;SDS011;28058;46.344;17.786;2022-08-03T18:21:09;5.03;;;1.55;;
42414;SDS011;28058;46.344;17.786;2022-08-03T18:23:42;4.10;;;1.67;;
42414;SDS011;28058;46.344;17.786;2022-08-03T18:26:16;3.20;;;1.73;;
42414;SDS011;28058;46.344;17.786;2022-08-03T18:28:43;3.95;;;1.73;;
42414;SDS011;28058;46.344;17.786;2022-08-03T18:31:12;2.70;;;1.52;;
42414;SDS011;28058;46.344;17.786;2022-08-03T18:34:01;5.03;;;1.98;;
42414;SDS011;28058;46.344;17.786;2022-08-03T18:36:49;2.53;;;1.63;;
42414;SDS011;28058;46.344;17.786;2022-08-03T18:39:21;2.97;;;1.80;;
42414;SDS011;28058;46.344;17.786;2022-08-03T18:41:48;4.97;;;1.60;;
42414;SDS011;28058;46.344;17.786;2022-08-03T18:44:14;3.30;;;1.52;;
42414;SDS011;28058;46.344;17.786;2022-08-03T18:55:22;3.90;;;1.92;;
42414;SDS011;28058;46.344;17.786;2022-08-03T19:00:50;5.68;;;1.98;;
42414;SDS011;28058;46.344;17.786;2022-08-03T19:03:41;4.13;;;1.70;;
42414;SDS011;28058;46.344;17.786;2022-08-03T19:06:16;4.40;;;1.70;;
42414;SDS011;28058;46.344;17.786;2022-08-03T19:09:03;3.22;;;2.13;;
42414;SDS011;28058;46.344;17.786;2022-08-03T19:11:45;3.05;;;2.00;;
42414;SDS011;28058;46.344;17.786;2022-08-03T19:14:39;6.65;;;2.00;;
42414;SDS011;28058;46.344;17.786;2022-08-03T19:17:09;4.32;;;2.00;;
42414;SDS011;28058;46.344;17.786;2022-08-03T19:19:40;5.47;;;1.90;;
42414;SDS011;28058;46.344;17.786;2022-08-03T19:22:11;5.53;;;2.10;;
42414;SDS011;28058;46.344;17.786;2022-08-03T19:24:45;6.05;;;2.22;;
42414;SDS011;28058;46.344;17.786;2022-08-03T19:27:13;3.88;;;1.80;;
42414;SDS011;28058;46.344;17.786;2022-08-03T19:29:44;4.47;;;1.70;;
42414;SDS011;28058;46.344;17.786;2022-08-03T19:32:27;3.35;;;1.98;;
42414;SDS011;28058;46.344;17.786;2022-08-03T19:34:56;3.50;;;1.80;;
42414;SDS011;28058;46.344;17.786;2022-08-03T19:37:25;3.10;;;1.92;;
42414;SDS011;28058;46.344;17.786;2022-08-03T19:40:06;3.33;;;1.80;;
42414;SDS011;28058;46.344;17.786;2022-08-03T19:42:58;4.53;;;1.90;;
42414;SDS011;28058;46.344;17.786;2022-08-03T19:45:31;2.95;;;1.90;;
42414;SDS011;28058;46.344;17.786;2022-08-03T19:48:22;3.92;;;2.25;;
42414;SDS011;28058;46.344;17.786;2022-08-03T19:50:55;2.85;;;1.95;;
42414;SDS011;28058;46.344;17.786;2022-08-03T19:53:43;3.50;;;2.13;;
42414;SDS011;28058;46.344;17.786;2022-08-03T19:56:13;2.75;;;1.98;;
42414;SDS011;28058;46.344;17.786;2022-08-03T19:58:42;5.03;;;2.25;;
42414;SDS011;28058;46.344;17.786;2022-08-03T20:01:18;3.78;;;2.20;;
42414;SDS011;28058;46.344;17.786;2022-08-03T20:03:47;6.82;;;2.10;;
42414;SDS011;28058;46.344;17.786;2022-08-03T20:06:15;3.50;;;1.88;;
42414;SDS011;28058;46.344;17.786;2022-08-03T20:08:43;3.50;;;2.00;;
42414;SDS011;28058;46.344;17.786;2022-08-03T20:11:16;3.53;;;1.80;;
42414;SDS011;28058;46.344;17.786;2022-08-03T20:13:44;6.22;;;1.95;;
42414;SDS011;28058;46.344;17.786;2022-08-03T20:16:14;4.28;;;1.77;;
42414;SDS011;28058;46.344;17.786;2022-08-03T20:18:42;2.13;;;1.55;;
42414;SDS011;28058;46.344;17.786;2022-08-03T20:21:11;2.78;;;1.98;;
42414;SDS011;28058;46.344;17.786;2022-08-03T20:26:28;2.58;;;1.80;;
42414;SDS011;28058;46.344;17.786;2022-08-03T20:29:00;3.47;;;1.92;;
42414;SDS011;28058;46.344;17.786;2022-08-03T20:31:35;3.35;;;1.75;;
42414;SDS011;28058;46.344;17.786;2022-08-03T20:34:03;2.78;;;1.42;;
42414;SDS011;28058;46.344;17.786;2022-08-03T20:36:31;2.63;;;1.63;;
42414;SDS011;28058;46.344;17.786;2022-08-03T20:38:58;5.40;;;1.75;;
42414;SDS011;28058;46.344;17.786;2022-08-03T20:41:25;2.70;;;1.70;;
42414;SDS011;28058;46.344;17.786;2022-08-03T20:43:52;3.13;;;1.80;;
42414;SDS011;28058;46.344;17.786;2022-08-03T20:46:19;3.28;;;1.60;;
42414;SDS011;28058;46.344;17.786;2022-08-03T20:49:01;1.88;;;1.50;;
42414;SDS011;28058;46.344;17.786;2022-08-03T20:51:30;3.15;;;1.70;;
42414;SDS011;28058;46.344;17.786;2022-08-03T20:54:18;2.10;;;1.52;;
42414;SDS011;28058;46.344;17.786;2022-08-03T20:56:54;2.58;;;1.52;;
42414;SDS011;28058;46.344;17.786;2022-08-03T20:59:22;2.67;;;1.42;;
42414;SDS011;28058;46.344;17.786;2022-08-03T21:01:49;3.03;;;1.63;;
42414;SDS011;28058;46.344;17.786;2022-08-03T21:04:16;3.45;;;1.67;;
42414;SDS011;28058;46.344;17.786;2022-08-03T21:06:52;5.50;;;1.58;;
42414;SDS011;28058;46.344;17.786;2022-08-03T21:09:29;4.22;;;1.38;;
42414;SDS011;28058;46.344;17.786;2022-08-03T21:12:06;2.22;;;1.40;;
42414;SDS011;28058;46.344;17.786;2022-08-03T21:14:48;4.15;;;1.45;;
42414;SDS011;28058;46.344;17.786;2022-08-03T21:17:22;3.33;;;1.40;;
42414;SDS011;28058;46.344;17.786;2022-08-03T21:20:07;3.22;;;1.70;;
42414;SDS011;28058;46.344;17.786;2022-08-03T21:22:36;4.03;;;1.75;;
42414;SDS011;28058;46.344;17.786;2022-08-03T21:25:05;5.32;;;2.22;;
42414;SDS011;28058;46.344;17.786;2022-08-03T21:27:35;3.35;;;1.80;;
42414;SDS011;28058;46.344;17.786;2022-08-03T21:30:04;2.72;;;2.10;;
42414;SDS011;28058;46.344;17.786;2022-08-03T21:32:34;3.30;;;1.98;;